Time;durP1;ratioP1;P1;durP2;ratioP2;P2;SDS_P1;SDS_P2;PMS_P1;PMS_P2;Temp;Humidity;BMP_temperature;BMP_pressure;BME280_temperature;BME280_humidity;BME280_pressure;Samples;Min_cycle;Max_cycle;Signal;HPM_P1;HPM_P2
2023/04/01 14:13:37;;;;;;;14.57;6.70;;;20.20;56.40;;;;;;5016161;28;20406;-70
2023/04/01 14:20:37;;;;;;;12.23;7.07;;;20.60;56.90;;;;;;5057379;28;20449;-64
2023/04/01 14:23:12;;;;;;;14.88;6.85;;;20.80;56.80;;;;;;5043930;28;20030;-63
2023/04/01 14:26:03;;;;;;;12.23;6.70;;;20.90;56.60;;;;;;5043464;28;20034;-64
2023/04/01 14:29:01;;;;;;;13.73;6.40;;;21.10;56.40;;;;;;5049913;28;20048;-67
2023/04/01 14:31:43;;;;;;;9.82;6.13;;;21.20;56.00;;;;;;5047675;28;20108;-67
2023/04/01 14:34:24;;;;;;;15.85;6.97;;;21.20;55.50;;;;;;5044999;28;20495;-66
2023/04/01 14:36:55;;;;;;;17.10;7.90;;;21.30;55.20;;;;;;5041474;28;20096;-66
2023/04/01 14:39:30;;;;;;;27.25;9.40;;;21.20;54.70;;;;;;5047743;28;20025;-66
2023/04/01 14:42:31;;;;;;;22.50;9.02;;;21.20;54.10;;;;;;5044921;28;20486;-76
2023/04/01 14:45:36;;;;;;;12.93;7.32;;;21.10;52.80;;;;;;5042386;28;20025;-80
2023/04/01 14:48:30;;;;;;;15.80;6.55;;;21.00;53.10;;;;;;5011218;28;20064;-77
2023/04/01 14:51:03;;;;;;;12.25;6.40;;;20.90;53.40;;;;;;5040410;28;20029;-76
2023/04/01 14:53:33;;;;;;;12.85;6.60;;;20.90;53.90;;;;;;5040519;28;20047;-77
2023/04/01 14:56:02;;;;;;;11.00;6.50;;;20.80;54.00;;;;;;5043779;28;20406;-77
2023/04/01 14:58:46;;;;;;;11.45;6.13;;;20.80;54.10;;;;;;5044635;28;20029;-79
2023/04/01 15:01:25;;;;;;;12.88;6.07;;;20.70;54.00;;;;;;5040217;28;20045;-78
2023/04/01 15:04:15;;;;;;;14.60;7.25;;;20.70;54.30;;;;;;5044921;28;20110;-81
2023/04/01 15:07:12;;;;;;;11.18;6.32;;;20.60;54.30;;;;;;5043917;28;20026;-82
2023/04/01 15:09:58;;;;;;;11.43;6.75;;;20.60;54.40;;;;;;5047388;28;20039;-81
2023/04/01 15:12:44;;;;;;;12.27;7.00;;;20.60;54.30;;;;;;5041037;28;20029;-80
2023/04/01 15:15:23;;;;;;;11.02;6.35;;;20.60;54.40;;;;;;5040879;28;20021;-80
2023/04/01 15:18:14;;;;;;;13.18;6.15;;;20.50;54.50;;;;;;5037841;28;20064;-81
2023/04/01 15:20:55;;;;;;;9.75;5.68;;;20.50;54.40;;;;;;5043205;28;20021;-80
2023/04/01 15:23:36;;;;;;;9.90;6.05;;;20.50;54.60;;;;;;5043546;28;20029;-80
2023/04/01 15:26:16;;;;;;;11.35;6.05;;;20.50;54.60;;;;;;5046861;28;20037;-80
2023/04/01 15:29:02;;;;;;;9.23;5.70;;;20.50;54.50;;;;;;5039114;28;20082;-79
2023/04/01 15:31:52;;;;;;;11.65;6.20;;;20.40;54.60;;;;;;4988403;28;20045;-77
2023/04/01 15:34:26;;;;;;;9.77;5.82;;;20.40;54.70;;;;;;5027918;28;20021;-74
2023/04/01 15:36:51;;;;;;;;;;;20.40;54.70;;;;;;5025232;28;20026;-78
2023/04/01 15:39:50;;;;;;;9.18;5.70;;;20.40;54.60;;;;;;5031002;28;19922;-78
2023/04/01 15:42:15;;;;;;;8.50;5.40;;;20.40;54.80;;;;;;5027142;28;20056;-78
2023/04/01 15:44:50;;;;;;;10.57;5.43;;;20.40;54.90;;;;;;5026390;28;20021;-77
2023/04/01 15:47:25;;;;;;;6.68;4.75;;;20.40;54.90;;;;;;5029393;28;20404;-77
2023/04/01 15:50:24;;;;;;;10.35;5.70;;;20.40;55.00;;;;;;5025105;28;20076;-77
2023/04/01 15:53:11;;;;;;;7.78;5.18;;;20.40;55.00;;;;;;5006351;28;20037;-77
2023/04/01 15:55:47;;;;;;;9.93;5.05;;;20.40;55.00;;;;;;5030356;28;20439;-79
2023/04/01 15:58:40;;;;;;;8.93;4.93;;;20.40;55.10;;;;;;5030994;28;20072;-80
2023/04/01 16:01:35;;;;;;;9.25;5.22;;;20.40;55.10;;;;;;5028049;28;20026;-78
2023/04/01 16:04:25;;;;;;;8.90;5.03;;;20.40;55.10;;;;;;5026467;28;20030;-79
2023/04/01 16:07:20;;;;;;;7.47;5.07;;;20.40;55.10;;;;;;5028100;28;20060;-78
2023/04/01 16:09:57;;;;;;;10.55;5.03;;;20.40;55.00;;;;;;5027912;28;20025;-78
2023/04/01 16:12:25;;;;;;;8.20;4.38;;;20.40;55.10;;;;;;5028863;28;20036;-79
2023/04/01 16:15:33;;;;;;;7.50;5.05;;;20.30;55.10;;;;;;5027618;28;20072;-78
2023/04/01 16:18:18;;;;;;;9.13;5.35;;;20.40;54.90;;;;;;5026909;28;20411;-77
2023/04/01 16:20:55;;;;;;;7.85;5.47;;;20.40;55.00;;;;;;5025247;28;20084;-76
2023/04/01 16:23:39;;;;;;;8.02;5.25;;;20.30;55.00;;;;;;5031375;28;20431;-77
2023/04/01 16:26:12;;;;;;;;;;;20.40;54.90;;;;;;5025873;28;20053;-76
2023/04/01 16:29:03;;;;;;;9.15;5.18;;;20.30;54.60;;;;;;5014703;28;19909;-78
2023/04/01 16:32:02;;;;;;;8.65;4.85;;;20.40;54.90;;;;;;5033952;28;20026;-74
2023/04/01 16:34:38;;;;;;;9.73;5.65;;;20.30;55.00;;;;;;5012726;28;20065;-69
2023/04/01 16:37:32;;;;;;;11.35;5.40;;;20.40;55.10;;;;;;5025410;28;20104;-68
2023/04/01 16:40:26;;;;;;;11.55;6.30;;;20.40;54.90;;;;;;5028234;28;20037;-65
2023/04/01 16:42:53;;;;;;;12.25;6.43;;;20.40;54.70;;;;;;5024484;28;20022;-64
2023/04/01 16:45:49;;;;;;;7.85;5.00;;;20.40;54.80;;;;;;5024433;28;20037;-65
2023/04/01 16:48:28;;;;;;;11.02;5.60;;;20.40;54.90;;;;;;5032330;28;20014;-66
2023/04/01 16:50:58;;;;;;;11.95;5.45;;;20.40;54.80;;;;;;5032257;28;20030;-65
2023/04/01 16:53:24;;;;;;;7.18;4.80;;;20.40;54.80;;;;;;5024331;28;20046;-65
2023/04/01 16:56:04;;;;;;;8.93;5.20;;;20.40;54.80;;;;;;5033829;28;20049;-65
2023/04/01 16:58:48;;;;;;;10.90;6.53;;;20.40;54.90;;;;;;5027930;28;20025;-65
2023/04/01 17:01:30;;;;;;;7.60;4.90;;;20.40;54.80;;;;;;5022584;28;20036;-66
2023/04/01 17:04:31;;;;;;;7.72;5.10;;;20.40;54.80;;;;;;5023598;28;20091;-67
2023/04/01 17:07:14;;;;;;;9.05;5.20;;;20.40;54.70;;;;;;5013752;28;20132;-66
2023/04/01 17:10:12;;;;;;;8.27;5.07;;;20.40;54.90;;;;;;5026538;28;20074;-66
2023/04/01 17:13:07;;;;;;;9.77;5.43;;;20.40;54.80;;;;;;5024231;28;20057;-75
2023/04/01 17:15:57;;;;;;;7.80;4.90;;;20.40;54.80;;;;;;4994938;28;20045;-66
2023/04/01 17:18:59;;;;;;;10.55;5.03;;;20.40;54.90;;;;;;5029200;28;20052;-66
2023/04/01 17:21:43;;;;;;;7.35;5.13;;;20.40;54.90;;;;;;5030473;28;20104;-63
2023/04/01 17:24:40;;;;;;;8.18;4.75;;;20.40;55.00;;;;;;5032207;28;20022;-63
2023/04/01 17:27:11;;;;;;;8.02;4.35;;;20.40;55.00;;;;;;5031435;28;20033;-65
2023/04/01 17:29:37;;;;;;;14.48;5.45;;;20.40;55.00;;;;;;5032918;28;20033;-64
2023/04/01 17:32:41;;;;;;;9.38;4.82;;;20.40;55.00;;;;;;5033591;28;20068;-64
2023/04/01 17:35:16;;;;;;;8.95;5.40;;;20.40;55.10;;;;;;5033433;28;20396;-64
2023/04/01 17:38:10;;;;;;;8.05;4.53;;;20.40;55.10;;;;;;5033908;28;20026;-64
2023/04/01 17:40:58;;;;;;;14.13;5.40;;;20.40;55.00;;;;;;5015789;28;20424;-65
2023/04/01 17:43:39;;;;;;;13.02;5.38;;;20.40;55.20;;;;;;5032635;28;20033;-63
2023/04/01 17:46:30;;;;;;;8.10;5.10;;;20.40;55.20;;;;;;5033394;28;20041;-64
2023/04/01 17:49:34;;;;;;;12.60;6.22;;;20.40;55.30;;;;;;5033365;28;20021;-64
2023/04/01 17:52:30;;;;;;;13.55;6.50;;;20.40;55.40;;;;;;5032778;28;20078;-64
2023/04/01 17:55:24;;;;;;;11.98;5.93;;;20.40;55.40;;;;;;5033108;28;20033;-64
2023/04/01 17:58:02;;;;;;;9.18;5.22;;;20.40;55.50;;;;;;5033430;28;20026;-64
2023/04/01 18:00:46;;;;;;;9.98;5.88;;;20.40;55.50;;;;;;5032408;28;20033;-64
2023/04/01 18:03:39;;;;;;;11.13;5.03;;;20.40;55.60;;;;;;5033278;28;20217;-63
2023/04/01 18:06:43;;;;;;;8.63;5.22;;;20.40;55.60;;;;;;5033257;28;20052;-64
2023/04/01 18:09:17;;;;;;;7.32;5.10;;;20.40;55.60;;;;;;5033411;28;20064;-63
2023/04/01 18:11:52;;;;;;;13.65;6.50;;;20.40;55.60;;;;;;5033127;28;20029;-65
2023/04/01 18:14:50;;;;;;;10.88;5.90;;;20.40;55.70;;;;;;5036407;28;20434;-65
2023/04/01 18:17:37;;;;;;;10.77;6.40;;;20.40;55.70;;;;;;5015494;28;20460;-65
2023/04/01 18:20:22;;;;;;;11.18;5.70;;;20.40;55.70;;;;;;5033066;28;20526;-65
2023/04/01 18:22:58;;;;;;;9.38;5.13;;;20.30;55.60;;;;;;5033241;28;20132;-65
2023/04/01 18:25:40;;;;;;;11.13;5.35;;;20.40;55.70;;;;;;5033371;28;20026;-66
2023/04/01 18:28:15;;;;;;;11.52;6.22;;;20.30;55.70;;;;;;5033182;28;20032;-64
2023/04/01 18:30:44;;;;;;;12.68;5.80;;;20.30;55.80;;;;;;5032998;28;20107;-68
2023/04/01 18:33:34;;;;;;;13.13;6.00;;;20.30;55.80;;;;;;5033033;28;20022;-69
2023/04/01 18:36:18;;;;;;;9.60;5.40;;;20.30;55.90;;;;;;5032877;28;20026;-71
2023/04/01 18:39:01;;;;;;;11.32;4.88;;;20.40;55.90;;;;;;5032975;28;20022;-69
2023/04/01 18:42:06;;;;;;;13.00;5.85;;;20.40;55.90;;;;;;5032874;28;20492;-68
2023/04/01 18:44:52;;;;;;;15.98;5.72;;;20.40;56.10;;;;;;4952736;29;20040;-68
2023/04/01 18:47:26;;;;;;;11.10;6.25;;;20.40;56.20;;;;;;4952760;29;20546;-70
2023/04/01 18:50:20;;;;;;;13.85;6.22;;;20.40;56.20;;;;;;4952624;29;20163;-70
2023/04/01 18:52:50;;;;;;;12.05;5.93;;;20.40;56.20;;;;;;4952884;29;20031;-69
2023/04/01 18:55:26;;;;;;;15.13;6.30;;;20.40;56.20;;;;;;4952751;29;20035;-69
2023/04/01 18:57:53;;;;;;;12.25;6.00;;;20.40;56.20;;;;;;4952649;29;20479;-68
2023/04/01 19:00:32;;;;;;;11.02;6.72;;;20.40;56.30;;;;;;4952627;29;20072;-68
2023/04/01 19:03:07;;;;;;;9.25;6.03;;;20.40;56.20;;;;;;4958592;29;20123;-69
2023/04/01 19:05:39;;;;;;;12.40;6.20;;;20.40;56.30;;;;;;4954607;28;20027;-67
2023/04/01 19:08:22;;;;;;;10.13;6.07;;;20.40;56.30;;;;;;4956037;29;20493;-68
2023/04/01 19:11:07;;;;;;;9.32;6.10;;;20.30;56.20;;;;;;4956139;29;20371;-69
2023/04/01 19:13:44;;;;;;;11.07;6.40;;;20.30;56.20;;;;;;4956479;29;20035;-73
2023/04/01 19:16:29;;;;;;;11.90;6.43;;;20.30;56.20;;;;;;4956269;29;20023;-69
2023/04/01 19:19:16;;;;;;;11.40;6.45;;;20.30;56.20;;;;;;4955761;29;20146;-69
2023/04/01 19:21:48;;;;;;;11.90;7.15;;;20.30;56.30;;;;;;5027030;28;20063;-69
2023/04/01 19:25:00;;;;;;;10.82;6.50;;;20.20;56.30;;;;;;5036057;28;20496;-70
2023/04/01 19:27:50;;;;;;;11.85;6.43;;;20.20;56.30;;;;;;5005725;28;20039;-71
2023/04/01 19:30:55;;;;;;;11.20;6.35;;;20.20;56.30;;;;;;5036040;28;20025;-73
2023/04/01 19:33:32;;;;;;;11.50;6.18;;;20.20;56.40;;;;;;5035757;28;20021;-69
2023/04/01 19:36:13;;;;;;;11.43;6.20;;;20.10;56.40;;;;;;5036158;28;20039;-68
2023/04/01 19:39:00;;;;;;;9.07;5.85;;;20.10;56.40;;;;;;5035867;28;20048;-68
2023/04/01 19:41:57;;;;;;;11.23;6.60;;;20.10;56.40;;;;;;5036033;28;20026;-68
2023/04/01 19:45:02;;;;;;;10.82;6.47;;;20.10;56.30;;;;;;5034974;28;20549;-68
2023/04/01 19:48:05;;;;;;;11.68;6.47;;;20.10;56.30;;;;;;5035647;28;20026;-71
2023/04/01 19:50:48;;;;;;;12.65;6.20;;;20.10;56.40;;;;;;5035896;28;20097;-67
2023/04/01 19:53:35;;;;;;;10.63;5.60;;;20.10;56.50;;;;;;5035584;28;20033;-71
2023/04/01 19:56:01;;;;;;;12.07;7.28;;;20.10;56.50;;;;;;5035428;28;20438;-68
2023/04/01 19:58:50;;;;;;;11.68;7.13;;;20.10;56.50;;;;;;5035446;28;20021;-69
2023/04/01 20:01:22;;;;;;;12.52;6.72;;;20.10;56.40;;;;;;5035163;28;20045;-70
2023/04/01 20:03:57;;;;;;;11.70;6.90;;;20.00;56.50;;;;;;5035479;28;20052;-71
2023/04/01 20:06:55;;;;;;;12.13;6.05;;;20.00;56.50;;;;;;5034984;28;20037;-68
2023/04/01 20:09:30;;;;;;;10.43;6.50;;;20.00;56.50;;;;;;5035229;28;20029;-68
2023/04/01 20:12:19;;;;;;;11.57;5.93;;;20.10;56.50;;;;;;5035366;28;20033;-69
2023/04/01 20:14:48;;;;;;;11.05;6.72;;;20.00;56.50;;;;;;5035007;28;20029;-69
